Time;durP1;ratioP1;P1;durP2;ratioP2;P2;SDS_P1;SDS_P2;PMS_P1;PMS_P2;Temp;Humidity;BMP_temperature;BMP_pressure;BME280_temperature;BME280_humidity;BME280_pressure;Samples;Min_cycle;Max_cycle;Signal;HPM_P1;HPM_P2
2021/05/29 00:01:34;;;;;;;1.10;1.00;;;16.00;99.90;;;;;;5026168;28;21037;-79
2021/05/29 00:04:04;;;;;;;1.30;1.07;;;16.00;99.90;;;;;;5026823;28;20510;-80
2021/05/29 00:06:32;;;;;;;1.20;1.10;;;16.00;99.90;;;;;;5026627;28;20483;-81
2021/05/29 00:08:59;;;;;;;1.20;1.10;;;15.90;99.90;;;;;;5022769;28;20686;-80
2021/05/29 00:11:27;;;;;;;1.20;1.10;;;15.90;99.90;;;;;;5026409;28;20452;-81
2021/05/29 00:13:55;;;;;;;1.23;1.13;;;15.90;99.90;;;;;;5026248;28;20469;-80
2021/05/29 00:16:23;;;;;;;1.47;1.10;;;15.90;99.90;;;;;;5026716;28;20514;-79
2021/05/29 00:18:51;;;;;;;1.63;1.53;;;15.90;99.90;;;;;;5024612;28;20475;-80
2021/05/29 00:21:20;;;;;;;1.23;1.13;;;15.90;99.90;;;;;;5024521;28;20971;-80
2021/05/29 00:23:47;;;;;;;1.47;1.20;;;15.90;99.90;;;;;;5057443;28;20479;-78
2021/05/29 00:26:15;;;;;;;1.43;1.27;;;15.80;99.90;;;;;;5025428;28;20485;-81
2021/05/29 00:28:43;;;;;;;1.67;1.23;;;15.80;99.90;;;;;;5024692;28;20952;-79
2021/05/29 00:31:11;;;;;;;1.27;1.17;;;15.70;99.90;;;;;;5026535;28;20540;-79
2021/05/29 00:33:39;;;;;;;1.50;1.40;;;15.70;99.90;;;;;;5024840;28;20479;-79
2021/05/29 00:36:07;;;;;;;2.50;1.20;;;15.70;99.90;;;;;;5062732;28;20448;-82
2021/05/29 00:38:36;;;;;;;1.27;1.17;;;15.70;99.90;;;;;;5022827;28;20469;-81
2021/05/29 00:41:08;;;;;;;1.23;1.13;;;15.70;99.90;;;;;;5024439;28;20888;-80
2021/05/29 00:43:36;;;;;;;1.30;1.10;;;15.70;99.90;;;;;;5029784;28;21026;-81
2021/05/29 00:46:04;;;;;;;1.87;1.13;;;15.70;99.90;;;;;;5029121;28;20909;-80
2021/05/29 00:48:33;;;;;;;1.00;1.00;;;15.60;99.90;;;;;;5062286;28;20522;-79
2021/05/29 00:51:02;;;;;;;1.63;1.30;;;15.60;99.90;;;;;;5029195;28;20455;-80
2021/05/29 00:53:31;;;;;;;1.37;1.27;;;15.50;99.90;;;;;;5029858;28;20475;-79
2021/05/29 00:56:03;;;;;;;1.57;1.10;;;15.50;99.90;;;;;;5029234;28;20655;-80
2021/05/29 00:58:31;;;;;;;1.10;1.10;;;15.50;99.90;;;;;;5028687;28;20572;-79
2021/05/29 01:01:00;;;;;;;1.20;1.10;;;15.60;99.90;;;;;;5028560;28;20462;-81
2021/05/29 01:03:29;;;;;;;1.70;1.13;;;15.60;99.90;;;;;;5029415;28;20475;-79
2021/05/29 01:05:57;;;;;;;1.30;1.20;;;15.60;99.90;;;;;;5028841;28;20494;-81
2021/05/29 01:08:25;;;;;;;2.60;1.40;;;15.60;99.90;;;;;;5029435;28;20450;-80
2021/05/29 01:10:53;;;;;;;1.10;0.97;;;15.60;99.90;;;;;;5028857;28;20464;-80
2021/05/29 01:13:27;;;;;;;1.30;1.20;;;15.60;99.90;;;;;;5029153;28;20491;-80
2021/05/29 01:15:59;;;;;;;1.50;1.40;;;15.60;99.90;;;;;;5019738;28;20450;-81
2021/05/29 01:18:27;;;;;;;1.33;1.23;;;15.60;99.90;;;;;;5029300;28;20457;-80
2021/05/29 01:20:54;;;;;;;1.37;1.20;;;15.60;99.90;;;;;;5044677;28;20838;-81
2021/05/29 01:23:23;;;;;;;3.20;1.57;;;15.60;99.90;;;;;;5029483;28;20574;-80
2021/05/29 01:25:51;;;;;;;1.20;1.10;;;15.50;99.90;;;;;;5028435;28;20486;-79
2021/05/29 01:28:23;;;;;;;1.10;1.00;;;15.60;99.90;;;;;;5028694;28;20827;-79
2021/05/29 01:30:55;;;;;;;1.00;0.93;;;15.50;99.90;;;;;;5044410;28;20466;-81
2021/05/29 01:33:25;;;;;;;1.30;1.10;;;15.50;99.90;;;;;;5029331;28;20484;-79
2021/05/29 01:35:57;;;;;;;1.40;1.30;;;15.50;99.90;;;;;;5029795;28;20456;-81
2021/05/29 01:38:27;;;;;;;2.60;1.13;;;15.50;99.90;;;;;;5028582;28;20458;-80
2021/05/29 01:41:00;;;;;;;1.30;1.10;;;15.50;99.90;;;;;;5044711;28;20467;-81
2021/05/29 01:43:28;;;;;;;1.13;1.03;;;15.50;99.90;;;;;;5029090;28;20568;-80
2021/05/29 01:45:56;;;;;;;1.80;1.13;;;15.40;99.90;;;;;;5027845;28;20514;-81
2021/05/29 01:48:32;;;;;;;2.03;1.10;;;15.40;99.90;;;;;;5027571;28;20564;-81
2021/05/29 01:51:00;;;;;;;1.27;1.10;;;15.40;99.90;;;;;;5029993;28;20449;-82
2021/05/29 01:53:29;;;;;;;1.20;1.10;;;15.40;99.90;;;;;;5028306;28;20549;-81
2021/05/29 01:55:57;;;;;;;1.73;1.10;;;15.50;99.90;;;;;;5028594;28;20456;-81
2021/05/29 01:58:24;;;;;;;1.07;0.97;;;15.50;99.90;;;;;;5027659;28;20471;-81
2021/05/29 02:00:52;;;;;;;1.80;1.00;;;15.40;99.90;;;;;;5028040;28;20460;-79
2021/05/29 02:03:20;;;;;;;1.40;1.10;;;15.40;99.90;;;;;;5028157;28;20487;-82
2021/05/29 02:05:48;;;;;;;1.20;1.10;;;15.40;99.90;;;;;;5027903;28;20490;-80
2021/05/29 02:08:16;;;;;;;1.30;1.20;;;15.30;99.90;;;;;;5027865;28;20455;-79
2021/05/29 02:10:47;;;;;;;2.20;1.00;;;15.30;99.90;;;;;;5028780;28;20467;-82
2021/05/29 02:13:23;;;;;;;1.37;1.27;;;15.30;99.90;;;;;;5027906;28;20905;-80
2021/05/29 02:15:51;;;;;;;1.93;1.20;;;15.30;99.90;;;;;;5028412;28;20462;-80
2021/05/29 02:18:20;;;;;;;2.37;1.20;;;15.30;99.90;;;;;;5028005;28;20540;-80
2021/05/29 02:20:50;;;;;;;1.50;1.10;;;15.30;99.90;;;;;;5028215;28;20452;-80
2021/05/29 02:23:19;;;;;;;1.67;1.10;;;15.40;99.90;;;;;;5027413;28;20491;-80
2021/05/29 02:25:49;;;;;;;1.40;1.30;;;15.30;99.90;;;;;;5028194;28;20539;-79
2021/05/29 02:28:19;;;;;;;1.60;1.43;;;15.30;99.90;;;;;;5017940;28;20527;-80
2021/05/29 02:30:48;;;;;;;1.50;1.40;;;15.30;99.90;;;;;;5008836;28;20549;-82
2021/05/29 02:33:16;;;;;;;1.33;1.10;;;15.30;99.90;;;;;;5024041;28;20463;-81
2021/05/29 02:35:43;;;;;;;1.40;1.30;;;15.30;99.90;;;;;;5042823;28;20862;-80
2021/05/29 02:38:11;;;;;;;2.00;1.17;;;15.30;99.90;;;;;;5026421;28;20455;-80
2021/05/29 02:40:39;;;;;;;3.47;1.33;;;15.20;99.90;;;;;;5028098;28;20462;-78
2021/05/29 02:43:08;;;;;;;1.57;1.40;;;15.20;99.90;;;;;;5027148;28;20557;-80
2021/05/29 02:45:38;;;;;;;1.47;1.30;;;15.20;99.90;;;;;;5028288;28;20532;-81
2021/05/29 02:48:08;;;;;;;1.50;1.30;;;15.20;99.90;;;;;;5026175;28;20475;-81
2021/05/29 02:50:37;;;;;;;1.50;1.40;;;15.20;99.90;;;;;;5027975;28;20455;-80
2021/05/29 02:53:06;;;;;;;2.10;1.40;;;15.20;99.90;;;;;;5059318;28;20595;-81
2021/05/29 02:55:34;;;;;;;1.63;1.10;;;15.20;99.90;;;;;;5029585;28;20560;-80
2021/05/29 02:58:03;;;;;;;2.50;1.40;;;15.20;99.90;;;;;;5025132;28;20470;-79
2021/05/29 03:00:33;;;;;;;2.20;1.60;;;15.20;99.90;;;;;;5028094;28;20519;-79
2021/05/29 03:03:03;;;;;;;1.57;1.47;;;15.10;99.90;;;;;;5025776;28;20461;-78
2021/05/29 03:05:31;;;;;;;1.30;1.20;;;15.10;99.90;;;;;;5061338;28;20494;-81
2021/05/29 03:07:59;;;;;;;2.03;1.70;;;15.10;99.90;;;;;;5006150;28;20481;-80
2021/05/29 03:10:27;;;;;;;2.00;1.40;;;15.10;99.90;;;;;;5023579;28;20471;-82
2021/05/29 03:12:55;;;;;;;2.33;1.50;;;15.10;99.90;;;;;;5019691;28;20493;-82
2021/05/29 03:15:24;;;;;;;1.67;1.37;;;15.10;99.90;;;;;;5027008;28;20460;-83
2021/05/29 03:17:55;;;;;;;1.47;1.37;;;15.10;99.90;;;;;;5060090;28;20728;-79
2021/05/29 03:20:26;;;;;;;1.33;1.23;;;15.00;99.90;;;;;;5027660;28;20503;-80
2021/05/29 03:22:54;;;;;;;2.30;1.73;;;15.00;99.90;;;;;;5026689;28;20482;-81
2021/05/29 03:25:22;;;;;;;1.50;1.40;;;15.00;99.90;;;;;;5043172;28;20578;-81
2021/05/29 03:27:52;;;;;;;4.50;1.70;;;15.00;99.90;;;;;;5024209;28;20752;-77
2021/05/29 03:30:23;;;;;;;1.50;1.40;;;15.00;99.90;;;;;;5026760;28;20826;-81
2021/05/29 03:32:51;;;;;;;1.47;1.37;;;15.00;99.90;;;;;;5026451;28;20663;-80
2021/05/29 03:35:20;;;;;;;2.40;2.20;;;15.00;99.90;;;;;;5027210;28;20469;-79
2021/05/29 03:37:48;;;;;;;1.53;1.43;;;14.90;99.90;;;;;;5060085;28;20458;-80
2021/05/29 03:40:17;;;;;;;1.47;1.37;;;14.90;99.90;;;;;;5027023;28;20462;-81
2021/05/29 03:42:46;;;;;;;1.50;1.40;;;14.90;99.90;;;;;;5059427;28;20458;-80
2021/05/29 03:45:16;;;;;;;2.23;1.53;;;14.90;99.90;;;;;;5026966;28;20475;-77
2021/05/29 03:47:46;;;;;;;1.93;1.50;;;14.80;99.90;;;;;;5059964;28;20927;-77
2021/05/29 03:50:15;;;;;;;1.40;1.30;;;14.70;99.90;;;;;;5025508;28;20456;-80
2021/05/29 03:52:44;;;;;;;3.83;1.40;;;14.70;99.90;;;;;;5060083;28;20967;-80
2021/05/29 03:55:14;;;;;;;3.20;1.40;;;14.70;99.90;;;;;;5026394;28;20510;-81
2021/05/29 03:57:42;;;;;;;2.00;1.63;;;14.70;99.90;;;;;;5059967;28;21000;-81
2021/05/29 04:00:12;;;;;;;1.60;1.40;;;14.60;99.90;;;;;;5025204;28;20453;-79
2021/05/29 04:02:40;;;;;;;2.17;1.60;;;14.60;99.90;;;;;;5028421;28;20450;-81
2021/05/29 04:05:10;;;;;;;2.33;2.17;;;14.60;99.90;;;;;;5027417;28;20465;-80
2021/05/29 04:07:39;;;;;;;1.20;1.20;;;14.60;99.90;;;;;;5024633;28;20550;-79
2021/05/29 04:10:09;;;;;;;1.60;1.47;;;14.60;99.90;;;;;;5029119;28;20521;-80
2021/05/29 04:12:38;;;;;;;1.40;1.30;;;14.60;99.90;;;;;;5064379;28;20502;-80
2021/05/29 04:15:08;;;;;;;1.70;1.60;;;14.60;99.90;;;;;;5026531;28;20500;-80
2021/05/29 04:17:36;;;;;;;1.40;1.30;;;14.50;99.90;;;;;;5030287;28;20452;-79
2021/05/29 04:20:05;;;;;;;1.40;1.27;;;14.60;99.90;;;;;;5030077;28;20463;-79
2021/05/29 04:22:33;;;;;;;2.33;2.23;;;14.60;99.90;;;;;;5030766;28;20462;-80
2021/05/29 04:25:01;;;;;;;2.10;1.90;;;14.70;99.90;;;;;;5038564;28;20582;-77
2021/05/29 04:27:30;;;;;;;1.63;1.53;;;14.60;99.90;;;;;;5030692;28;20468;-80
2021/05/29 04:29:57;;;;;;;1.93;1.63;;;14.60;99.90;;;;;;5028655;28;20536;-81
2021/05/29 04:32:25;;;;;;;2.90;1.87;;;14.60;99.90;;;;;;5030696;28;21041;-80
2021/05/29 04:34:53;;;;;;;2.33;1.57;;;14.60;99.90;;;;;;5028996;28;21060;-80
2021/05/29 04:37:21;;;;;;;1.80;1.47;;;14.60;99.90;;;;;;5030930;28;20455;-79
2021/05/29 04:39:49;;;;;;;2.03;1.40;;;14.60;99.90;;;;;;5028499;28;20462;-80
2021/05/29 04:42:17;;;;;;;1.40;1.30;;;14.70;99.90;;;;;;5030239;28;21035;-80
2021/05/29 04:44:46;;;;;;;3.20;1.80;;;14.70;99.90;;;;;;5031971;28;20466;-80
2021/05/29 04:47:13;;;;;;;1.50;1.40;;;14.70;99.90;;;;;;5028215;28;20479;-80
2021/05/29 04:49:41;;;;;;;1.50;1.40;;;14.70;99.90;;;;;;5027059;28;20460;-81
2021/05/29 04:52:09;;;;;;;1.97;1.47;;;14.80;99.90;;;;;;5030394;28;20462;-80
2021/05/29 04:54:39;;;;;;;1.87;1.33;;;14.80;99.90;;;;;;5028649;28;20550;-80
2021/05/29 04:57:07;;;;;;;1.90;1.50;;;14.90;99.90;;;;;;5026676;28;20466;-81
2021/05/29 04:59:35;;;;;;;1.60;1.20;;;14.90;99.90;;;;;;5008384;28;20462;-82
2021/05/29 05:02:04;;;;;;;1.53;1.43;;;15.00;99.90;;;;;;5057819;28;20460;-81
2021/05/29 05:04:32;;;;;;;1.30;1.20;;;15.00;99.90;;;;;;5028459;28;21046;-79
2021/05/29 05:07:00;;;;;;;2.13;1.20;;;15.00;99.90;;;;;;5026188;28;20570;-79
2021/05/29 05:09:28;;;;;;;3.93;1.57;;;15.00;99.90;;;;;;5028513;28;20826;-78
2021/05/29 05:11:57;;;;;;;1.40;1.30;;;15.10;99.90;;;;;;5031271;28;20566;-80
2021/05/29 05:14:25;;;;;;;1.80;1.30;;;15.10;99.90;;;;;;5029698;28;20483;-82
2021/05/29 05:16:53;;;;;;;1.20;1.10;;;15.10;99.90;;;;;;5031485;28;20811;-81
2021/05/29 05:19:22;;;;;;;1.47;1.37;;;15.10;99.90;;;;;;5012421;28;20464;-80
2021/05/29 05:21:49;;;;;;;2.60;1.20;;;15.10;99.90;;;;;;5040181;28;20465;-80
2021/05/29 05:24:17;;;;;;;2.00;1.57;;;15.20;99.90;;;;;;5041852;28;20572;-80
2021/05/29 05:26:45;;;;;;;1.50;1.40;;;15.30;99.90;;;;;;5009651;28;20454;-81
2021/05/29 05:29:13;;;;;;;1.70;1.30;;;15.30;99.90;;;;;;5008677;28;20460;-82
2021/05/29 05:31:43;;;;;;;1.23;1.13;;;15.30;99.90;;;;;;5024908;28;20462;-81
2021/05/29 05:34:11;;;;;;;1.30;1.10;;;15.40;99.90;;;;;;5028263;28;20486;-80
2021/05/29 05:36:41;;;;;;;1.30;1.20;;;15.40;99.90;;;;;;5045443;28;20954;-80
2021/05/29 05:39:10;;;;;;;1.30;1.20;;;15.40;99.90;;;;;;5027814;28;20479;-81
2021/05/29 05:41:38;;;;;;;1.20;1.10;;;15.50;99.90;;;;;;5029138;28;20463;-80
2021/05/29 05:44:07;;;;;;;1.10;1.00;;;15.50;99.90;;;;;;5028354;28;20467;-79
2021/05/29 05:46:36;;;;;;;3.90;1.20;;;15.50;99.90;;;;;;5028788;28;20893;-81
2021/05/29 05:49:05;;;;;;;1.30;1.20;;;15.50;99.90;;;;;;5060905;28;20486;-80
2021/05/29 05:51:33;;;;;;;1.73;0.90;;;15.60;99.90;;;;;;5062710;28;20466;-78
2021/05/29 05:54:04;;;;;;;1.30;1.00;;;15.60;99.90;;;;;;5029363;28;20760;-78
2021/05/29 05:56:32;;;;;;;1.23;1.10;;;15.70;99.90;;;;;;5028289;28;20453;-80
2021/05/29 05:58:59;;;;;;;1.00;1.00;;;15.70;99.90;;;;;;5027167;28;21193;-80
2021/05/29 06:01:28;;;;;;;1.40;1.30;;;15.80;99.90;;;;;;5028348;28;20867;-80
2021/05/29 06:03:56;;;;;;;3.33;1.43;;;15.80;99.90;;;;;;5060984;28;21030;-80
2021/05/29 06:06:25;;;;;;;1.40;1.20;;;15.80;99.90;;;;;;5015414;28;20453;-81
2021/05/29 06:08:53;;;;;;;1.87;1.10;;;15.90;99.90;;;;;;5022160;28;20988;-79
2021/05/29 06:11:22;;;;;;;1.10;1.00;;;15.90;99.90;;;;;;5060704;28;20473;-80
2021/05/29 06:19:23;;;;;;;2.30;1.00;;;15.90;99.90;;;;;;4997890;28;20460;-80
2021/05/29 06:21:53;;;;;;;1.30;1.20;;;16.00;99.90;;;;;;5060624;28;20464;-80
2021/05/29 06:24:24;;;;;;;1.20;1.20;;;16.00;99.90;;;;;;5028430;28;21042;-81
2021/05/29 06:26:53;;;;;;;1.93;1.83;;;16.00;99.90;;;;;;5026904;28;20463;-80
2021/05/29 06:29:21;;;;;;;1.20;1.10;;;16.00;99.90;;;;;;5027736;28;20847;-80
2021/05/29 06:31:50;;;;;;;1.77;1.30;;;16.10;99.90;;;;;;5061699;28;20451;-79
2021/05/29 06:34:18;;;;;;;1.53;1.40;;;16.10;99.90;;;;;;5028539;28;20478;-76
2021/05/29 06:36:47;;;;;;;2.43;1.20;;;16.20;99.90;;;;;;5027450;28;20944;-80
2021/05/29 06:39:15;;;;;;;1.20;1.10;;;16.30;99.90;;;;;;5060504;28;20460;-82
2021/05/29 06:41:43;;;;;;;1.50;1.30;;;16.40;99.90;;;;;;5027160;28;20459;-79
2021/05/29 06:44:13;;;;;;;1.07;1.07;;;16.40;99.90;;;;;;5026782;28;20849;-80
2021/05/29 06:46:41;;;;;;;1.60;1.50;;;16.50;99.90;;;;;;5023241;28;20461;-78
2021/05/29 06:49:10;;;;;;;1.40;1.30;;;16.60;99.90;;;;;;5042998;28;20487;-81
2021/05/29 06:51:42;;;;;;;1.40;1.30;;;16.60;99.90;;;;;;5027139;28;20484;-82
2021/05/29 06:54:14;;;;;;;1.53;1.43;;;16.70;99.90;;;;;;5027547;28;20567;-80
2021/05/29 06:59:29;;;;;;;2.07;1.00;;;17.00;99.90;;;;;;5028095;28;20998;-81
2021/05/29 07:01:58;;;;;;;1.43;1.13;;;17.30;99.90;;;;;;5028116;28;20808;-80
2021/05/29 07:04:26;;;;;;;1.70;1.17;;;17.50;99.90;;;;;;5023259;28;20490;-79
2021/05/29 07:06:54;;;;;;;1.60;1.10;;;17.40;99.90;;;;;;5026151;28;20467;-82
2021/05/29 07:09:22;;;;;;;1.30;1.20;;;17.60;99.90;;;;;;5026081;28;20508;-81
2021/05/29 07:11:50;;;;;;;1.30;1.20;;;17.70;99.90;;;;;;5027363;28;20556;-80
2021/05/29 07:14:19;;;;;;;1.60;1.00;;;17.90;99.90;;;;;;5008287;28;20562;-82
2021/05/29 07:16:50;;;;;;;1.63;1.10;;;17.90;99.90;;;;;;5013331;28;20462;-80
2021/05/29 07:19:19;;;;;;;1.57;1.20;;;18.00;99.90;;;;;;5026017;28;20860;-80
2021/05/29 07:21:47;;;;;;;2.33;1.40;;;18.00;99.90;;;;;;5043678;28;20455;-81
2021/05/29 07:24:16;;;;;;;2.23;1.10;;;18.10;99.90;;;;;;5026949;28;20479;-80
2021/05/29 07:26:44;;;;;;;1.50;1.10;;;18.10;99.90;;;;;;5028447;28;20450;-80
2021/05/29 07:29:12;;;;;;;1.20;1.10;;;18.10;99.90;;;;;;5025392;28;21033;-81
2021/05/29 07:31:40;;;;;;;1.03;1.03;;;18.10;99.90;;;;;;5027153;28;20454;-79
2021/05/29 07:34:09;;;;;;;1.20;1.10;;;18.10;99.90;;;;;;5059253;28;20514;-79
2021/05/29 07:36:38;;;;;;;1.07;0.97;;;18.20;99.90;;;;;;5027240;28;20932;-78
2021/05/29 07:39:07;;;;;;;1.00;1.00;;;18.20;99.90;;;;;;5026641;28;20538;-80
2021/05/29 07:41:35;;;;;;;2.93;1.10;;;18.20;99.90;;;;;;5027527;28;21015;-79
2021/05/29 07:44:04;;;;;;;1.40;1.30;;;18.20;99.90;;;;;;5059875;28;20483;-80
2021/05/29 07:46:33;;;;;;;1.33;1.20;;;18.20;99.90;;;;;;5026943;28;20475;-80
2021/05/29 07:49:01;;;;;;;1.60;1.50;;;18.00;99.90;;;;;;5025113;28;20482;-79
2021/05/29 07:51:34;;;;;;;1.03;1.00;;;18.00;99.90;;;;;;5026888;28;20848;-79
2021/05/29 07:54:04;;;;;;;1.73;1.20;;;18.00;99.90;;;;;;5027141;28;20577;-79
2021/05/29 07:56:32;;;;;;;1.90;1.30;;;18.10;99.90;;;;;;5027337;28;20463;-79
2021/05/29 07:59:05;;;;;;;1.20;1.10;;;18.10;99.90;;;;;;5026523;28;20439;-80
2021/05/29 08:01:33;;;;;;;1.93;1.40;;;18.10;99.90;;;;;;5027010;28;20454;-79
2021/05/29 08:04:01;;;;;;;1.40;1.30;;;18.20;99.90;;;;;;5025121;28;20536;-78
2021/05/29 08:06:30;;;;;;;1.23;1.10;;;18.20;99.90;;;;;;5027177;28;20473;-80
2021/05/29 08:08:58;;;;;;;1.57;1.43;;;18.30;99.90;;;;;;5040407;28;20483;-80
2021/05/29 08:11:26;;;;;;;1.50;1.40;;;18.30;99.90;;;;;;5060050;28;20475;-79
2021/05/29 08:13:56;;;;;;;2.27;1.50;;;18.40;99.90;;;;;;5058988;28;20478;-80
2021/05/29 08:16:25;;;;;;;1.97;1.30;;;18.30;99.90;;;;;;5027111;28;20458;-79
2021/05/29 08:18:54;;;;;;;1.37;1.17;;;18.30;99.90;;;;;;5058234;28;20452;-80
2021/05/29 08:21:22;;;;;;;1.40;1.30;;;18.30;99.90;;;;;;5026555;28;20470;-80
2021/05/29 08:23:52;;;;;;;1.30;1.20;;;18.30;99.90;;;;;;5025427;28;20582;-79
2021/05/29 08:26:20;;;;;;;7.43;1.37;;;18.40;99.90;;;;;;5060241;28;20448;-80
2021/05/29 08:28:48;;;;;;;3.10;1.30;;;18.40;99.90;;;;;;5058291;28;20823;-79
2021/05/29 08:31:16;;;;;;;1.03;1.03;;;18.40;99.90;;;;;;5059957;28;20465;-79
2021/05/29 08:33:44;;;;;;;1.63;1.10;;;18.40;99.90;;;;;;5055839;28;20483;-79
2021/05/29 08:36:12;;;;;;;1.17;1.00;;;18.40;99.90;;;;;;5019736;28;20943;-80
2021/05/29 08:38:40;;;;;;;1.10;1.00;;;18.40;99.90;;;;;;5024589;28;21128;-81
2021/05/29 08:41:10;;;;;;;1.40;1.00;;;18.40;99.90;;;;;;5019473;28;20541;-80
2021/05/29 08:43:38;;;;;;;3.90;1.30;;;18.50;99.90;;;;;;5025357;28;20489;-80
2021/05/29 08:46:06;;;;;;;1.87;1.50;;;18.50;99.90;;;;;;5043682;28;20467;-81
2021/05/29 08:48:34;;;;;;;0.90;0.90;;;18.60;99.90;;;;;;5025157;28;20474;-79
2021/05/29 08:51:14;;;;;;;1.37;1.27;;;18.50;99.90;;;;;;5026970;28;20981;-82
2021/05/29 08:53:43;;;;;;;1.20;1.10;;;18.50;99.90;;;;;;5025737;28;20479;-81
2021/05/29 08:56:12;;;;;;;1.17;1.07;;;18.50;99.90;;;;;;5027583;28;20471;-80
2021/05/29 08:58:41;;;;;;;3.80;1.10;;;18.50;99.90;;;;;;5028710;28;20460;-82
2021/05/29 09:01:10;;;;;;;0.90;0.90;;;18.50;99.90;;;;;;5029406;28;20547;-82
2021/05/29 09:03:47;;;;;;;1.00;0.90;;;18.60;99.90;;;;;;5022038;28;21066;-79
2021/05/29 09:06:17;;;;;;;1.77;1.67;;;18.50;99.90;;;;;;5033809;28;20874;-81
2021/05/29 09:08:55;;;;;;;0.90;0.90;;;18.60;99.90;;;;;;5027326;28;20487;-80
2021/05/29 09:11:46;;;;;;;1.10;1.00;;;18.70;99.90;;;;;;5029243;28;20462;-81
2021/05/29 09:14:35;;;;;;;1.47;1.07;;;18.80;99.90;;;;;;5024611;28;21018;-80
2021/05/29 09:17:16;;;;;;;1.70;1.10;;;18.90;99.90;;;;;;5055414;28;20547;-82
2021/05/29 09:20:03;;;;;;;2.20;1.10;;;19.00;99.90;;;;;;5027364;28;20518;-80
2021/05/29 09:22:37;;;;;;;1.23;1.13;;;19.20;99.90;;;;;;5028612;28;20473;-79
2021/05/29 09:25:09;;;;;;;1.77;1.43;;;19.10;99.90;;;;;;5046448;28;20475;-82
2021/05/29 09:27:52;;;;;;;1.30;1.00;;;19.00;99.90;;;;;;5028411;28;20444;-81
2021/05/29 09:30:38;;;;;;;1.67;1.20;;;19.00;99.90;;;;;;5028492;28;20583;-81
2021/05/29 09:33:11;;;;;;;1.70;1.37;;;19.00;99.90;;;;;;5029887;28;20465;-80
2021/05/29 09:35:39;;;;;;;1.10;1.00;;;19.10;99.90;;;;;;5028527;28;20493;-79
2021/05/29 09:38:07;;;;;;;1.83;1.10;;;19.20;99.90;;;;;;5029858;28;20452;-80
2021/05/29 09:40:35;;;;;;;1.30;0.97;;;19.30;99.90;;;;;;5028063;28;20836;-80
2021/05/29 09:43:07;;;;;;;1.53;1.10;;;19.30;99.90;;;;;;5062448;28;20488;-80
2021/05/29 09:45:37;;;;;;;1.57;0.90;;;19.40;99.90;;;;;;5029764;28;20547;-80
2021/05/29 09:48:14;;;;;;;0.80;0.80;;;19.40;99.90;;;;;;5028292;28;20452;-82
2021/05/29 09:51:07;;;;;;;1.10;0.90;;;19.50;99.90;;;;;;5041320;28;20511;-80
2021/05/29 09:53:37;;;;;;;1.27;1.07;;;19.60;99.90;;;;;;5009560;28;20558;-82
2021/05/29 09:56:07;;;;;;;1.13;1.00;;;19.70;99.90;;;;;;5008982;28;20449;-79
2021/05/29 09:58:58;;;;;;;1.10;1.00;;;19.70;99.90;;;;;;5008474;28;20453;-80
2021/05/29 10:01:47;;;;;;;1.20;1.10;;;19.60;99.90;;;;;;5028070;28;20449;-80
2021/05/29 10:04:30;;;;;;;0.87;0.87;;;19.70;99.90;;;;;;5061234;28;20524;-81
2021/05/29 10:07:00;;;;;;;0.90;0.90;;;19.80;99.90;;;;;;5058857;28;20821;-81
2021/05/29 10:09:29;;;;;;;1.63;0.90;;;19.90;99.90;;;;;;5027338;28;20476;-79
2021/05/29 10:11:58;;;;;;;1.10;1.10;;;19.90;99.90;;;;;;5027829;28;21015;-80
2021/05/29 10:14:29;;;;;;;1.83;1.17;;;19.90;99.90;;;;;;5029881;28;20461;-80
2021/05/29 10:16:59;;;;;;;2.20;1.20;;;19.80;99.90;;;;;;5029092;28;20805;-81
2021/05/29 10:19:29;;;;;;;2.43;1.00;;;19.80;99.90;;;;;;5022297;28;20465;-81
2021/05/29 10:21:57;;;;;;;1.30;1.17;;;19.80;99.90;;;;;;5049710;28;20486;-80
2021/05/29 10:24:27;;;;;;;1.30;1.00;;;19.90;99.90;;;;;;5027555;28;20476;-82
2021/05/29 10:26:55;;;;;;;1.37;1.10;;;20.00;99.90;;;;;;5028094;28;20481;-78
2021/05/29 10:29:28;;;;;;;1.30;1.20;;;20.00;99.90;;;;;;5043148;28;20472;-79
2021/05/29 10:32:14;;;;;;;2.57;1.40;;;19.90;99.90;;;;;;5027931;28;20456;-80
2021/05/29 10:35:00;;;;;;;1.27;1.17;;;19.90;99.90;;;;;;5061374;28;20468;-80
2021/05/29 10:37:37;;;;;;;1.80;1.40;;;19.90;99.90;;;;;;5027921;28;20455;-82
2021/05/29 10:40:17;;;;;;;1.40;1.20;;;19.90;99.90;;;;;;5026336;28;20448;-81
2021/05/29 10:42:46;;;;;;;2.47;1.20;;;20.00;99.90;;;;;;5029439;28;20452;-82
2021/05/29 10:45:19;;;;;;;2.00;1.23;;;20.10;99.90;;;;;;5028342;28;20491;-82
2021/05/29 10:48:05;;;;;;;1.43;1.33;;;20.00;99.90;;;;;;5029175;28;20460;-82
2021/05/29 10:50:56;;;;;;;1.40;1.20;;;20.10;99.90;;;;;;5027584;28;20480;-82
2021/05/29 10:53:52;;;;;;;1.50;1.40;;;20.00;99.90;;;;;;5056209;28;20490;-78
2021/05/29 10:56:32;;;;;;;2.67;1.40;;;19.90;99.90;;;;;;5026983;28;20472;-81
2021/05/29 10:59:06;;;;;;;1.10;1.00;;;19.80;99.90;;;;;;5025319;28;20936;-79
2021/05/29 11:02:00;;;;;;;1.87;1.17;;;19.80;99.90;;;;;;5027761;28;20458;-80
2021/05/29 11:04:30;;;;;;;1.20;1.10;;;19.90;99.90;;;;;;5027553;28;20479;-81
2021/05/29 11:07:00;;;;;;;2.20;1.30;;;19.90;99.90;;;;;;5025399;28;20551;-81
2021/05/29 11:09:52;;;;;;;1.97;0.90;;;20.00;99.90;;;;;;5059770;28;20483;-80
2021/05/29 11:12:20;;;;;;;2.23;1.10;;;20.00;99.90;;;;;;5041175;28;20539;-81
2021/05/29 11:14:51;;;;;;;1.53;1.07;;;20.10;99.90;;;;;;5049939;28;21077;-79
2021/05/29 11:17:21;;;;;;;4.70;1.93;;;20.00;99.90;;;;;;5026786;28;20531;-80
2021/05/29 11:20:10;;;;;;;2.63;1.23;;;20.00;99.90;;;;;;5025909;28;20444;-79
2021/05/29 11:22:49;;;;;;;2.10;1.20;;;20.00;99.90;;;;;;5026464;28;20460;-81
2021/05/29 11:25:19;;;;;;;2.20;1.40;;;20.00;99.90;;;;;;5027562;28;21118;-80
2021/05/29 11:27:48;;;;;;;5.53;1.50;;;20.10;99.90;;;;;;5030627;28;21160;-82
2021/05/29 11:30:21;;;;;;;2.57;1.57;;;20.30;99.90;;;;;;5027146;28;20579;-82
2021/05/29 11:32:55;;;;;;;2.70;1.50;;;20.40;99.90;;;;;;5027720;28;20534;-80
2021/05/29 11:35:31;;;;;;;2.03;1.10;;;20.50;99.90;;;;;;5027263;28;20471;-79
2021/05/29 11:38:10;;;;;;;1.17;0.80;;;20.50;99.90;;;;;;5026546;28;20952;-81
2021/05/29 11:40:43;;;;;;;0.90;0.90;;;20.50;99.90;;;;;;5028042;28;20543;-79
2021/05/29 11:43:11;;;;;;;0.80;0.80;;;20.60;99.90;;;;;;5059283;28;20543;-81
2021/05/29 11:45:39;;;;;;;1.20;1.10;;;20.70;99.90;;;;;;5028493;28;20449;-82
2021/05/29 11:48:10;;;;;;;1.00;0.90;;;20.70;99.90;;;;;;5009033;28;20510;-80
2021/05/29 11:50:42;;;;;;;0.80;0.80;;;20.80;99.90;;;;;;5026749;28;21086;-80
2021/05/29 11:53:11;;;;;;;1.30;0.90;;;20.80;99.90;;;;;;5027186;28;20460;-81
2021/05/29 11:55:53;;;;;;;2.30;1.00;;;20.80;99.90;;;;;;5024341;28;20456;-79
2021/05/29 11:58:21;;;;;;;0.90;0.90;;;20.80;99.90;;;;;;5026974;28;20608;-80
2021/05/29 12:00:56;;;;;;;0.77;0.77;;;20.90;99.90;;;;;;5023857;28;20457;-80
2021/05/29 12:03:45;;;;;;;0.80;0.80;;;20.90;99.90;;;;;;5041521;28;20475;-79
2021/05/29 12:06:32;;;;;;;0.97;0.87;;;21.00;99.90;;;;;;5027359;28;20619;-79
2021/05/29 12:09:00;;;;;;;0.97;0.97;;;21.10;99.90;;;;;;5018766;28;20964;-81
2021/05/29 12:11:29;;;;;;;1.33;1.23;;;21.10;99.90;;;;;;5026130;28;20539;-79
2021/05/29 12:14:08;;;;;;;1.00;0.90;;;21.10;99.90;;;;;;5059861;28;20480;-80
2021/05/29 12:16:37;;;;;;;0.87;0.80;;;21.10;99.90;;;;;;5025605;28;20456;-80
2021/05/29 12:19:07;;;;;;;0.80;0.80;;;21.20;99.90;;;;;;5026156;28;20555;-80
2021/05/29 12:21:48;;;;;;;1.23;0.70;;;21.20;99.90;;;;;;5018373;28;20875;-80
2021/05/29 12:24:16;;;;;;;0.70;0.70;;;21.40;99.90;;;;;;5036199;28;20494;-82
2021/05/29 12:26:45;;;;;;;1.13;1.10;;;21.40;99.90;;;;;;5017965;28;20461;-80
2021/05/29 12:29:14;;;;;;;1.67;0.97;;;21.50;99.90;;;;;;5026129;28;20481;-80
2021/05/29 12:31:47;;;;;;;0.80;0.80;;;21.40;99.90;;;;;;5030093;28;20457;-81
2021/05/29 12:34:16;;;;;;;0.80;0.70;;;21.30;99.90;;;;;;5030498;28;20547;-81
2021/05/29 12:36:58;;;;;;;0.80;0.80;;;21.20;99.40;;;;;;5029524;28;20456;-80
2021/05/29 12:39:52;;;;;;;2.80;0.77;;;21.10;97.90;;;;;;5033364;28;20447;-80
2021/05/29 12:42:32;;;;;;;0.80;0.70;;;21.20;98.10;;;;;;5029379;28;20462;-80
2021/05/29 12:45:04;;;;;;;2.13;0.93;;;21.20;97.10;;;;;;5030389;28;20564;-80
2021/05/29 12:47:33;;;;;;;0.73;0.73;;;21.20;95.20;;;;;;5030069;28;20812;-81
2021/05/29 12:50:13;;;;;;;0.90;0.60;;;21.30;96.00;;;;;;5028368;28;20479;-77
2021/05/29 12:52:42;;;;;;;0.60;0.60;;;21.30;95.20;;;;;;5029889;28;20461;-81
2021/05/29 12:55:18;;;;;;;0.73;0.60;;;21.40;96.10;;;;;;5021794;28;20473;-80
2021/05/29 12:57:46;;;;;;;1.33;0.70;;;21.40;97.20;;;;;;5031090;28;20461;-81
2021/05/29 13:00:25;;;;;;;0.60;0.60;;;21.50;97.70;;;;;;5030422;28;20507;-81
2021/05/29 13:09:12;;;;;;;0.80;0.80;;;21.40;98.90;;;;;;5026244;28;20959;-80
2021/05/29 13:11:41;;;;;;;0.60;0.60;;;21.40;99.10;;;;;;5030272;28;20451;-80
2021/05/29 13:14:13;;;;;;;1.20;0.70;;;21.30;98.30;;;;;;5028749;28;20469;-80
2021/05/29 13:16:52;;;;;;;0.73;0.60;;;21.20;96.10;;;;;;5029154;28;20455;-80
2021/05/29 13:19:22;;;;;;;0.70;0.70;;;21.10;95.40;;;;;;5027569;28;21243;-78
2021/05/29 13:21:59;;;;;;;0.70;0.70;;;21.10;95.70;;;;;;5030066;28;20458;-79